Airfield :







YOU CAN JOIN US ON...

 
LOGIN :

Register | Disclaimer

   EN    FR    IT 

 









Legend :    VFR   Marginal VFR   IFR   Intensive IFR   Very Intensive IFR
Visi :
Ceiling :
>= 8 km
>= 3000ft
5 to 8 km
1000 to 3000 ft
1500m to 5 km
500 to 1000 ft
800 to 1500m
200 to 500 ft
< 800m
< 200 ft
Symbols :   Thunderstorms  Fog  Heavy snow  Heavy precipitations  Wind > 20 kt






- Airport Elevation : 193 ft
- IATA code : ZBF


CZBF - Bathurst

CURRENT METAR :
  • 070400Z AUTO 00000KT 9SM BKN046 OVC060 09/07 A2984 RMK SLP106

EXPIRED METARs :
  • 070300Z AUTO 02003KT 310V050 9SM OVC055 09/08 A2983 RMK SLP104
  • 070252Z AUTO VRB02KT 9SM OVC055 09/08 A2983 RMK SLP104
  • 070212Z AUTO VRB02KT 9SM -RA SCT039 OVC048 09/06 A2984 RMK SLP107
  • 070100Z AUTO VRB02KT 9SM OVC046 09/07 A2985 RMK SLP110

Expired Forecast.
CZQM FIR / North America



MET'MAP, your aeronautical weather chart ! - Copyright ORBIFLY December 2007 - Disclaimer

ORBIFLY MET'MAP TEAM :

Programming & Development : Alexandra Zaïnal
Concept & original design : Baudouin d'Aumeries
Assistance for programming : Marc-Olivier Méhu
Technical & hardware support : Manuel Goepfert

Contact : metmap@orbifly.com




SOURCES & CREDITS :

   NOAA